Time;durP1;ratioP1;P1;durP2;ratioP2;P2;SDS_P1;SDS_P2;PMS_P1;PMS_P2;Temp;Humidity;BMP_temperature;BMP_pressure;BME280_temperature;BME280_humidity;BME280_pressure;Samples;Min_cycle;Max_cycle;Signal;HPM_P1;HPM_P2
2023/03/04 00:02:16;;;;;;;16.90;15.17;;;;;;;7.24;68.02;94933.94;4982506;28;20727;-67
2023/03/04 00:04:42;;;;;;;17.03;15.33;;;;;;;7.21;67.78;94939.44;4986447;28;20231;-70
2023/03/04 00:07:07;;;;;;;17.57;15.77;;;;;;;7.18;68.29;94940.50;4984521;28;20232;-69
2023/03/04 00:09:33;;;;;;;16.87;15.27;;;;;;;7.35;67.76;94933.84;4984752;28;20388;-70
2023/03/04 00:11:58;;;;;;;17.10;15.33;;;;;;;7.34;67.51;94934.78;4983895;28;20326;-70
2023/03/04 00:14:23;;;;;;;16.90;15.20;;;;;;;7.34;68.01;94928.72;4984107;28;20279;-69
2023/03/04 00:16:49;;;;;;;15.87;14.27;;;;;;;7.24;68.21;94924.31;4985861;28;20679;-69
2023/03/04 00:19:14;;;;;;;16.37;14.77;;;;;;;7.17;68.69;94923.19;4982756;28;20228;-70
2023/03/04 00:21:40;;;;;;;16.77;15.17;;;;;;;7.28;68.34;94923.06;4982476;28;20220;-69
2023/03/04 00:24:06;;;;;;;17.30;15.60;;;;;;;7.16;68.06;94910.22;4982956;28;20220;-71
2023/03/04 00:26:31;;;;;;;15.87;14.20;;;;;;;7.13;68.70;94920.97;4979768;28;20223;-70
2023/03/04 00:28:57;;;;;;;16.03;14.43;;;;;;;7.04;68.99;94922.59;4981711;28;20202;-72
2023/03/04 00:31:22;;;;;;;16.13;14.53;;;;;;;7.03;68.78;94923.53;4981001;28;20251;-72
2023/03/04 00:33:47;;;;;;;15.87;14.37;;;;;;;7.02;68.65;94922.72;4981068;28;20227;-71
2023/03/04 00:36:13;;;;;;;15.73;14.20;;;;;;;7.14;68.55;94920.03;4985640;28;20329;-72
2023/03/04 00:38:38;;;;;;;16.80;14.33;;;;;;;7.20;67.96;94915.06;4988372;28;20214;-72
2023/03/04 00:41:04;;;;;;;15.00;13.43;;;;;;;7.21;68.21;94910.66;4984121;28;20235;-72
2023/03/04 00:43:30;;;;;;;15.47;13.97;;;;;;;7.26;67.88;94919.75;4984766;28;20270;-72
2023/03/04 00:45:56;;;;;;;15.83;14.13;;;;;;;7.23;68.21;94917.41;4987579;28;20220;-72
2023/03/04 00:48:21;;;;;;;15.80;14.20;;;;;;;7.00;68.74;94926.41;4982900;28;20231;-71
2023/03/04 00:50:47;;;;;;;15.90;14.40;;;;;;;7.05;68.28;94919.00;4984429;28;20224;-71
2023/03/04 00:53:13;;;;;;;18.57;14.57;;;;;;;7.03;68.23;94921.78;4982877;28;20207;-72
2023/03/04 00:55:38;;;;;;;15.83;14.33;;;;;;;7.20;68.00;94912.44;4982794;28;20188;-71
2023/03/04 00:58:04;;;;;;;16.83;15.17;;;;;;;6.89;68.98;94913.44;4982500;28;20697;-70
2023/03/04 01:00:29;;;;;;;16.53;14.83;;;;;;;7.01;68.78;94913.22;4984259;28;20220;-70
2023/03/04 01:02:55;;;;;;;16.47;14.87;;;;;;;7.12;68.15;94914.09;4984113;28;20355;-71
2023/03/04 01:05:20;;;;;;;16.40;14.70;;;;;;;7.09;68.29;94919.59;4981983;28;20231;-70
2023/03/04 01:07:46;;;;;;;15.80;14.23;;;;;;;7.24;68.18;94918.22;4986314;28;20227;-70
2023/03/04 01:10:13;;;;;;;15.50;14.00;;;;;;;7.21;67.63;94913.28;4982439;28;20224;-70
2023/03/04 01:12:40;;;;;;;15.83;14.23;;;;;;;6.73;69.16;94908.69;4980259;28;20254;-70
2023/03/04 01:15:07;;;;;;;16.67;14.97;;;;;;;6.89;69.26;94908.22;4981677;28;20227;-70
2023/03/04 01:17:33;;;;;;;16.10;14.60;;;;;;;6.98;68.73;94910.88;4982024;28;20688;-70
2023/03/04 01:19:58;;;;;;;16.13;14.60;;;;;;;6.98;68.56;94900.41;4986859;28;20236;-70
2023/03/04 01:22:24;;;;;;;16.10;14.07;;;;;;;7.02;68.49;94899.19;4982532;28;20228;-70
2023/03/04 01:24:49;;;;;;;16.57;14.87;;;;;;;6.99;68.56;94896.00;4985314;28;20220;-71
2023/03/04 01:27:15;;;;;;;16.23;14.70;;;;;;;6.99;68.61;94899.44;4986029;28;20716;-70
2023/03/04 01:29:41;;;;;;;16.43;14.73;;;;;;;7.03;68.48;94898.25;4984187;28;20227;-70
2023/03/04 01:32:06;;;;;;;16.43;14.83;;;;;;;6.89;68.87;94893.34;4989222;28;20562;-69
2023/03/04 01:34:31;;;;;;;16.37;14.63;;;;;;;7.09;68.39;94891.66;4985274;28;20258;-71
2023/03/04 01:36:57;;;;;;;16.23;14.57;;;;;;;6.98;68.43;94891.75;4982299;28;20223;-71
2023/03/04 01:39:22;;;;;;;15.53;13.93;;;;;;;6.99;68.46;94889.00;4981960;28;20289;-71
2023/03/04 01:41:48;;;;;;;15.33;13.83;;;;;;;6.99;68.21;94875.94;4983662;28;20234;-71
2023/03/04 01:44:14;;;;;;;15.40;13.80;;;;;;;7.10;67.52;94880.22;4981830;28;20192;-70
2023/03/04 01:46:46;;;;;;;15.27;13.70;;;;;;;7.13;67.01;94879.13;4984767;28;20176;-71
2023/03/04 01:49:13;;;;;;;14.37;13.00;;;;;;;7.16;67.05;94879.66;4983757;28;20232;-70
2023/03/04 01:51:40;;;;;;;13.80;12.50;;;;;;;7.17;66.47;94877.91;4987954;28;20216;-70
2023/03/04 01:54:05;;;;;;;14.77;13.27;;;;;;;6.98;67.08;94878.69;4986102;28;20227;-70
2023/03/04 01:56:37;;;;;;;14.57;13.17;;;;;;;7.07;67.03;94876.09;4983468;28;20219;-71
2023/03/04 01:59:12;;;;;;;15.27;13.80;;;;;;;6.34;69.34;94871.97;4982899;28;20208;-70
2023/03/04 02:01:39;;;;;;;15.37;13.87;;;;;;;6.50;69.29;94872.31;4981853;28;20231;-70
2023/03/04 02:04:06;;;;;;;15.37;13.90;;;;;;;6.63;68.52;94869.50;4982739;28;20305;-70
2023/03/04 02:06:32;;;;;;;16.27;14.57;;;;;;;6.84;67.84;94869.41;4984312;28;20223;-70
2023/03/04 02:08:58;;;;;;;15.13;13.63;;;;;;;6.94;67.53;94865.03;4982538;28;20219;-71
2023/03/04 02:11:23;;;;;;;16.20;14.60;;;;;;;6.72;68.23;94875.69;4979030;28;20194;-71
2023/03/04 02:13:50;;;;;;;16.20;14.60;;;;;;;6.89;68.09;94874.25;4984759;28;20176;-72
2023/03/04 02:16:15;;;;;;;15.60;14.00;;;;;;;6.97;67.61;94869.16;4985663;28;20298;-72
2023/03/04 02:18:41;;;;;;;16.00;14.40;;;;;;;6.95;67.27;94864.09;4985853;28;20216;-71
2023/03/04 02:21:19;;;;;;;15.50;13.97;;;;;;;6.90;67.14;94873.31;4980172;28;20242;-70
2023/03/04 02:24:06;;;;;;;14.63;13.23;;;;;;;6.92;67.23;94872.19;4980930;28;20223;-70
2023/03/04 02:26:34;;;;;;;15.63;13.97;;;;;;;6.96;66.74;94868.34;4977500;28;20223;-69
2023/03/04 02:29:00;;;;;;;15.40;13.80;;;;;;;6.99;66.64;94868.09;4974732;28;20254;-70
2023/03/04 02:31:35;;;;;;;16.10;14.40;;;;;;;6.81;66.97;94867.06;4979553;28;20219;-70
2023/03/04 02:34:05;;;;;;;15.50;14.00;;;;;;;6.89;67.12;94867.22;4980064;28;20258;-71
2023/03/04 02:36:33;;;;;;;14.87;13.37;;;;;;;6.79;67.03;94869.81;4981121;28;20219;-70
2023/03/04 02:39:38;;;;;;;16.17;14.50;;;;;;;6.72;67.74;94870.47;5000219;28;20223;-70
2023/03/04 02:42:04;;;;;;;16.20;14.50;;;;;;;6.30;68.75;94854.88;4974279;28;20649;-68
2023/03/04 02:44:35;;;;;;;16.63;14.93;;;;;;;6.48;68.58;94858.53;4968538;28;20247;-70
2023/03/04 02:47:02;;;;;;;15.90;14.07;;;;;;;6.57;68.05;94849.91;4972287;28;20188;-70
2023/03/04 02:49:29;;;;;;;15.97;14.37;;;;;;;6.67;67.81;94854.38;4970185;28;20227;-70
2023/03/04 02:52:04;;;;;;;16.57;14.97;;;;;;;6.71;67.45;94853.13;4965755;28;20211;-70
2023/03/04 02:54:30;;;;;;;15.40;13.87;;;;;;;6.74;67.11;94853.72;4972924;28;20227;-66
2023/03/04 02:57:00;;;;;;;15.73;14.13;;;;;;;6.75;67.34;94857.97;4992894;28;20241;-67
2023/03/04 02:59:26;;;;;;;16.13;14.60;;;;;;;6.60;67.51;94852.28;4985330;28;20203;-67
2023/03/04 03:01:52;;;;;;;16.77;15.17;;;;;;;6.69;67.23;94855.06;4984518;28;20282;-67
2023/03/04 03:04:18;;;;;;;16.83;14.77;;;;;;;6.69;66.99;94855.88;4987503;28;20235;-66
2023/03/04 03:06:44;;;;;;;16.23;14.63;;;;;;;6.70;67.29;94852.31;4996710;28;20227;-67
2023/03/04 03:09:09;;;;;;;16.27;14.67;;;;;;;6.68;66.90;94850.78;4984322;28;20235;-67
2023/03/04 03:11:35;;;;;;;16.00;14.30;;;;;;;6.66;67.56;94856.16;4981362;28;20230;-67
2023/03/04 03:14:00;;;;;;;16.10;14.50;;;;;;;6.65;68.04;94858.88;4989735;28;20221;-67
2023/03/04 03:16:26;;;;;;;17.43;15.73;;;;;;;6.60;67.84;94851.44;4989055;28;20235;-67
2023/03/04 03:18:51;;;;;;;16.77;15.17;;;;;;;6.63;68.13;94861.66;4985159;28;20227;-68
2023/03/04 03:21:17;;;;;;;16.43;14.83;;;;;;;6.60;67.70;94860.13;4987503;28;20614;-67
2023/03/04 03:23:43;;;;;;;16.73;15.03;;;;;;;6.61;67.68;94858.34;4985343;28;20238;-67
2023/03/04 03:26:08;;;;;;;16.50;14.90;;;;;;;6.54;67.58;94859.81;4992106;28;20211;-66
2023/03/04 03:28:34;;;;;;;16.33;14.63;;;;;;;6.54;67.92;94852.78;4988875;28;20192;-67
2023/03/04 03:31:00;;;;;;;15.83;14.20;;;;;;;6.43;68.39;94855.50;4985613;28;20258;-66
2023/03/04 03:33:25;;;;;;;17.47;15.57;;;;;;;6.50;68.04;94856.63;4985155;28;20313;-67
2023/03/04 03:35:50;;;;;;;16.50;14.77;;;;;;;6.47;68.21;94850.81;4990527;28;20262;-67
2023/03/04 03:38:16;;;;;;;17.03;15.33;;;;;;;6.44;68.40;94856.31;4983551;28;20211;-67
2023/03/04 03:40:41;;;;;;;16.90;15.20;;;;;;;6.41;68.13;94841.72;4988315;28;20374;-67
2023/03/04 03:43:07;;;;;;;16.67;15.07;;;;;;;6.35;68.47;94847.50;4986153;28;20300;-67
2023/03/04 03:45:32;;;;;;;16.73;15.03;;;;;;;6.37;68.48;94842.97;4986821;28;20238;-68
2023/03/04 03:47:58;;;;;;;18.40;16.53;;;;;;;6.33;68.57;94838.94;4984660;28;20235;-67
2023/03/04 03:50:23;;;;;;;17.43;15.40;;;;;;;6.25;68.85;94836.97;4985220;28;20207;-67
2023/03/04 03:52:48;;;;;;;16.53;14.73;;;;;;;6.24;68.69;94837.13;4985040;28;20197;-67
2023/03/04 03:55:14;;;;;;;18.73;15.77;;;;;;;5.90;69.96;94837.31;4989115;28;20250;-67
2023/03/04 03:57:40;;;;;;;17.13;15.37;;;;;;;6.04;69.34;94833.56;4986911;28;20223;-67
2023/03/04 04:00:07;;;;;;;17.07;15.43;;;;;;;6.01;68.94;94828.63;4986810;28;20223;-67
2023/03/04 04:02:32;;;;;;;17.73;15.93;;;;;;;6.09;68.90;94827.00;4983625;28;20235;-66
2023/03/04 04:04:58;;;;;;;18.00;16.10;;;;;;;6.06;68.59;94836.88;4986189;28;20231;-67
2023/03/04 04:07:23;;;;;;;17.10;15.40;;;;;;;5.94;69.11;94829.13;4985870;28;20298;-66
2023/03/04 04:09:49;;;;;;;17.13;15.43;;;;;;;5.94;68.91;94829.13;4986950;28;20712;-66
2023/03/04 04:12:15;;;;;;;18.60;15.63;;;;;;;6.00;69.18;94821.75;4984414;28;20286;-67
2023/03/04 04:14:41;;;;;;;16.93;15.23;;;;;;;5.93;68.74;94831.81;4986183;28;20253;-67
2023/03/04 04:17:08;;;;;;;17.30;15.50;;;;;;;5.88;69.31;94831.38;4987016;28;20271;-66
2023/03/04 04:19:33;;;;;;;18.30;15.90;;;;;;;5.92;68.92;94823.19;4985090;28;20192;-67
2023/03/04 04:21:59;;;;;;;17.73;15.67;;;;;;;5.88;69.02;94834.84;4985290;28;20263;-66
2023/03/04 04:24:24;;;;;;;17.23;15.47;;;;;;;5.86;68.96;94828.09;4983147;28;20227;-67
2023/03/04 04:26:50;;;;;;;17.73;15.93;;;;;;;5.84;69.17;94833.44;4985407;28;20219;-67
2023/03/04 04:29:15;;;;;;;18.03;15.43;;;;;;;5.85;69.21;94831.63;4983646;28;20196;-67
2023/03/04 04:31:41;;;;;;;18.63;16.73;;;;;;;5.88;69.04;94827.00;4989769;28;20180;-66
2023/03/04 04:34:06;;;;;;;16.87;15.17;;;;;;;5.87;68.71;94830.56;4990366;28;20223;-67
2023/03/04 04:36:32;;;;;;;21.20;16.50;;;;;;;5.78;69.11;94831.34;4987979;28;20518;-67
2023/03/04 04:38:57;;;;;;;19.10;17.03;;;;;;;5.77;68.88;94826.22;4994044;28;20246;-68
2023/03/04 04:41:30;;;;;;;17.73;15.90;;;;;;;5.78;69.29;94827.91;4986779;28;20211;-66
2023/03/04 04:43:56;;;;;;;18.10;16.20;;;;;;;5.78;69.20;94831.34;4992539;28;20195;-66
2023/03/04 04:46:22;;;;;;;20.57;16.20;;;;;;;5.81;69.41;94830.25;4990337;28;20220;-65
2023/03/04 04:48:48;;;;;;;19.27;16.77;;;;;;;5.67;69.77;94827.00;4988436;28;20219;-65
2023/03/04 04:51:13;;;;;;;18.43;16.60;;;;;;;5.62;70.04;94826.56;4988846;28;20278;-66
2023/03/04 04:53:39;;;;;;;19.80;17.70;;;;;;;5.61;69.93;94832.72;4991236;28;20219;-67
2023/03/04 04:56:13;;;;;;;20.60;18.37;;;;;;;5.70;69.67;94831.16;4989647;28;20265;-67
2023/03/04 04:58:38;;;;;;;21.03;18.23;;;;;;;5.75;69.57;94840.25;4987099;28;20228;-67
2023/03/04 05:01:04;;;;;;;20.03;17.77;;;;;;;5.77;69.09;94832.28;4984990;28;20387;-67
2023/03/04 05:03:31;;;;;;;21.27;18.27;;;;;;;5.78;68.90;94838.34;4989357;28;20227;-67
2023/03/04 05:05:56;;;;;;;22.43;18.90;;;;;;;5.81;69.21;94843.31;4986976;28;20343;-67
2023/03/04 05:08:22;;;;;;;20.07;17.93;;;;;;;5.91;69.16;94839.81;4984785;28;20290;-67
2023/03/04 05:10:47;;;;;;;20.03;17.93;;;;;;;5.84;68.94;94848.25;4972152;28;20192;-67
2023/03/04 05:13:13;;;;;;;19.83;16.97;;;;;;;5.83;68.96;94851.84;4970962;28;20323;-67
2023/03/04 05:15:38;;;;;;;19.47;16.47;;;;;;;5.86;68.83;94862.03;4956519;28;20216;-66
2023/03/04 05:18:03;;;;;;;19.57;17.50;;;;;;;5.90;68.41;94852.97;4961727;28;20228;-67
2023/03/04 05:20:29;;;;;;;19.47;16.73;;;;;;;6.00;68.39;94858.28;4965880;28;20228;-66
2023/03/04 05:22:54;;;;;;;19.90;16.90;;;;;;;5.99;68.54;94860.06;4968075;28;20220;-66
2023/03/04 05:25:20;;;;;;;20.67;16.70;;;;;;;6.04;68.54;94860.53;4965791;28;20231;-67
2023/03/04 05:27:45;;;;;;;20.53;17.07;;;;;;;6.03;68.26;94855.41;4963750;28;20238;-68
2023/03/04 05:30:11;;;;;;;17.80;16.00;;;;;;;6.09;68.36;94870.56;4959832;28;20235;-67
2023/03/04 05:32:37;;;;;;;20.07;18.07;;;;;;;5.92;68.51;94866.72;4965159;28;20255;-65
2023/03/04 05:35:03;;;;;;;19.77;17.73;;;;;;;5.63;69.61;94872.53;4964959;28;20239;-65
2023/03/04 05:37:28;;;;;;;19.83;17.70;;;;;;;5.86;68.96;94862.84;4963325;28;20236;-64
2023/03/04 05:39:53;;;;;;;21.17;18.93;;;;;;;5.99;68.58;94867.91;4968464;28;20311;-65
2023/03/04 05:42:19;;;;;;;19.60;17.33;;;;;;;6.05;68.87;94871.78;4977770;28;20243;-65
2023/03/04 05:44:44;;;;;;;20.03;17.90;;;;;;;6.16;68.28;94872.53;4983639;28;20219;-65
2023/03/04 05:47:09;;;;;;;19.60;17.60;;;;;;;6.18;68.74;94870.63;4981221;28;20203;-65
2023/03/04 05:49:35;;;;;;;20.00;17.90;;;;;;;6.27;68.68;94876.03;4983329;28;20255;-65
2023/03/04 05:52:00;;;;;;;19.80;16.63;;;;;;;6.37;68.13;94876.91;4983962;28;20286;-65
2023/03/04 05:54:26;;;;;;;19.87;17.83;;;;;;;6.35;68.52;94871.81;4981958;28;20242;-65
2023/03/04 05:56:51;;;;;;;20.77;17.87;;;;;;;6.19;68.67;94880.09;4984899;28;20283;-68
2023/03/04 05:59:19;;;;;;;20.80;17.20;;;;;;;6.31;68.05;94878.25;4979212;28;20199;-68
2023/03/04 06:01:45;;;;;;;19.90;17.77;;;;;;;6.33;67.93;94878.13;4981452;28;20315;-67
2023/03/04 06:04:11;;;;;;;19.40;17.03;;;;;;;6.38;68.00;94882.00;4980940;28;20286;-68
2023/03/04 06:06:37;;;;;;;18.93;16.37;;;;;;;6.36;67.99;94883.09;4980100;28;20223;-68
2023/03/04 06:09:02;;;;;;;19.40;17.43;;;;;;;6.38;67.91;94879.38;4980986;28;20283;-66
2023/03/04 06:11:28;;;;;;;18.57;16.67;;;;;;;6.43;67.47;94886.03;4981107;28;20298;-66
2023/03/04 06:13:53;;;;;;;19.37;17.37;;;;;;;6.18;67.90;94882.88;4980092;28;20191;-66
2023/03/04 06:16:19;;;;;;;19.03;17.03;;;;;;;6.00;68.72;94885.22;4981258;28;20219;-67
2023/03/04 06:18:44;;;;;;;18.73;16.83;;;;;;;5.82;70.49;94886.69;4984866;28;20211;-66
2023/03/04 06:21:10;;;;;;;19.30;16.70;;;;;;;6.04;70.03;94891.84;4981337;28;20224;-66
2023/03/04 06:23:35;;;;;;;20.10;17.80;;;;;;;6.01;70.02;94894.69;4982023;28;20234;-66
2023/03/04 06:26:01;;;;;;;20.27;16.90;;;;;;;6.02;69.72;94891.13;4980392;28;20184;-66
2023/03/04 06:28:28;;;;;;;17.63;15.90;;;;;;;6.19;68.75;94889.72;4975259;28;20224;-67
2023/03/04 06:30:55;;;;;;;18.50;16.50;;;;;;;6.39;67.84;94890.69;4995878;28;20236;-66
2023/03/04 06:33:21;;;;;;;20.07;16.53;;;;;;;6.43;67.07;94892.06;4979815;28;20309;-66
2023/03/04 06:35:47;;;;;;;17.17;15.37;;;;;;;6.52;67.31;94898.28;4980475;28;20243;-66
2023/03/04 06:38:13;;;;;;;18.87;16.87;;;;;;;6.56;67.28;94897.91;4983462;28;20226;-66
2023/03/04 06:40:38;;;;;;;20.70;17.53;;;;;;;6.68;66.84;94895.19;4982696;28;20195;-66
2023/03/04 06:43:04;;;;;;;20.63;17.23;;;;;;;6.72;67.27;94896.59;4982635;28;20249;-66
2023/03/04 06:45:29;;;;;;;20.83;17.63;;;;;;;6.49;68.14;94896.75;4981001;28;20270;-65
2023/03/04 06:47:55;;;;;;;19.40;17.23;;;;;;;6.28;69.42;94903.78;4981743;28;20231;-67
2023/03/04 06:50:20;;;;;;;19.30;17.13;;;;;;;6.27;69.49;94909.97;4981773;28;20189;-66
2023/03/04 06:52:46;;;;;;;19.23;17.23;;;;;;;6.29;69.68;94908.91;4981687;28;20222;-66
2023/03/04 06:55:13;;;;;;;18.80;17.00;;;;;;;6.45;69.75;94910.22;4979492;28;20220;-67
2023/03/04 06:57:38;;;;;;;20.03;17.00;;;;;;;6.50;69.05;94903.66;4979562;28;20226;-67
2023/03/04 07:00:05;;;;;;;19.10;16.83;;;;;;;6.75;68.36;94906.78;4979620;28;20310;-68
2023/03/04 07:02:30;;;;;;;22.43;18.43;;;;;;;6.68;68.38;94911.69;4980376;28;20254;-67
2023/03/04 07:04:56;;;;;;;22.60;19.40;;;;;;;6.84;67.90;94913.84;4979867;28;20227;-67
2023/03/04 07:07:22;;;;;;;22.70;19.30;;;;;;;6.91;67.12;94912.34;4980567;28;20227;-68
2023/03/04 07:09:47;;;;;;;21.13;18.87;;;;;;;6.98;66.78;94916.09;4977570;28;20242;-67
2023/03/04 07:12:13;;;;;;;22.23;18.17;;;;;;;6.92;66.58;94914.00;4977276;28;20224;-67
2023/03/04 07:14:38;;;;;;;20.10;17.30;;;;;;;7.02;65.94;94914.88;4978907;28;20223;-67
2023/03/04 07:17:04;;;;;;;19.10;17.10;;;;;;;7.06;66.15;94918.88;4981083;28;20192;-67
2023/03/04 07:19:31;;;;;;;21.17;18.47;;;;;;;7.11;66.24;94918.50;4978513;28;20220;-67
2023/03/04 07:21:56;;;;;;;22.93;19.33;;;;;;;7.11;66.05;94918.50;4980336;28;20234;-67
2023/03/04 07:24:22;;;;;;;16.13;14.30;;;;;;;7.12;65.05;94914.91;4983811;28;20227;-67
2023/03/04 07:26:47;;;;;;;15.10;13.50;;;;;;;7.12;64.41;94922.75;4980745;28;20231;-67
2023/03/04 07:29:13;;;;;;;20.00;14.10;;;;;;;7.15;64.25;94919.03;4979897;28;20286;-67
2023/03/04 07:31:38;;;;;;;16.97;12.60;;;;;;;7.16;63.89;94924.13;4983410;28;20176;-68
2023/03/04 07:34:06;;;;;;;15.17;12.67;;;;;;;7.12;63.76;94925.38;4983144;28;20235;-68
2023/03/04 07:36:34;;;;;;;15.90;13.40;;;;;;;7.22;63.36;94912.34;4983217;28;20306;-68
2023/03/04 07:38:59;;;;;;;15.03;13.30;;;;;;;7.25;63.50;94922.53;4982187;28;20271;-68
2023/03/04 07:41:27;;;;;;;15.20;12.83;;;;;;;7.17;63.59;94914.53;4982844;28;20223;-67
2023/03/04 07:43:54;;;;;;;19.00;14.63;;;;;;;7.22;63.83;94925.41;4965257;28;20288;-67
2023/03/04 07:46:20;;;;;;;20.50;14.77;;;;;;;7.29;63.29;94913.44;4980287;28;20222;-67
2023/03/04 07:48:45;;;;;;;16.33;14.60;;;;;;;7.35;63.14;94920.75;4980769;28;20223;-67
2023/03/04 07:51:13;;;;;;;17.20;13.53;;;;;;;7.21;63.65;94913.28;4981521;28;20318;-65
2023/03/04 07:53:40;;;;;;;16.70;13.37;;;;;;;7.36;63.49;94914.56;4981388;28;20226;-67
2023/03/04 07:56:07;;;;;;;15.90;13.83;;;;;;;7.41;62.64;94914.97;4981364;28;20348;-67
2023/03/04 07:58:33;;;;;;;19.87;14.00;;;;;;;7.47;62.58;94916.22;4983250;28;20297;-67
2023/03/04 08:00:58;;;;;;;15.67;13.03;;;;;;;7.63;61.97;94916.53;4981032;28;20228;-67
2023/03/04 08:03:27;;;;;;;21.87;13.37;;;;;;;7.61;61.82;94915.81;4978432;28;20227;-69
2023/03/04 08:05:52;;;;;;;16.33;12.77;;;;;;;7.54;61.54;94912.13;4985056;28;20242;-68
2023/03/04 08:08:18;;;;;;;16.40;13.10;;;;;;;7.62;61.59;94911.44;4982244;28;20192;-67
2023/03/04 08:10:44;;;;;;;16.60;13.03;;;;;;;7.67;61.51;94912.69;4979076;28;20212;-68
2023/03/04 08:13:09;;;;;;;18.73;12.73;;;;;;;7.30;62.45;94912.50;4996883;28;20227;-67
2023/03/04 08:15:39;;;;;;;16.90;13.13;;;;;;;7.64;62.26;94912.09;4984000;28;20600;-68
2023/03/04 08:18:04;;;;;;;14.97;12.53;;;;;;;7.82;61.70;94907.03;4980688;28;20282;-67
2023/03/04 08:20:30;;;;;;;17.57;13.70;;;;;;;7.90;61.63;94913.22;4983277;28;20290;-68
2023/03/04 08:22:55;;;;;;;17.37;13.70;;;;;;;7.83;61.95;94909.53;4984573;28;20932;-68
2023/03/04 08:25:21;;;;;;;16.50;14.13;;;;;;;7.97;61.40;94900.44;4981404;28;20645;-68
2023/03/04 08:27:46;;;;;;;16.97;13.47;;;;;;;7.90;61.95;94902.75;4984390;28;20337;-67
2023/03/04 08:30:12;;;;;;;24.57;15.60;;;;;;;7.91;61.96;94900.97;4984659;28;20270;-69
2023/03/04 08:32:37;;;;;;;17.70;14.63;;;;;;;8.04;61.55;94903.31;4982710;28;20231;-67
2023/03/04 08:35:03;;;;;;;17.33;14.30;;;;;;;8.07;61.24;94909.09;4987699;28;20319;-68
2023/03/04 08:37:29;;;;;;;17.30;14.70;;;;;;;8.05;61.42;94904.97;4986080;28;20227;-67
2023/03/04 08:39:54;;;;;;;21.47;13.93;;;;;;;7.81;62.66;94902.78;4985627;28;20303;-67
2023/03/04 08:42:19;;;;;;;17.97;14.80;;;;;;;7.97;61.71;94899.59;4977662;28;20267;-67
2023/03/04 08:44:45;;;;;;;17.40;14.27;;;;;;;8.26;61.27;94908.25;4985422;28;20219;-66
2023/03/04 08:47:11;;;;;;;19.97;16.27;;;;;;;8.36;60.83;94893.31;4975442;28;20315;-66
2023/03/04 08:49:36;;;;;;;18.83;15.07;;;;;;;8.52;60.63;94895.38;4984586;28;20199;-68
2023/03/04 08:52:02;;;;;;;19.90;16.57;;;;;;;8.24;61.39;94899.69;4982998;28;20719;-68
2023/03/04 08:54:27;;;;;;;21.33;17.43;;;;;;;8.23;61.29;94895.41;4978329;28;20231;-68
2023/03/04 08:56:53;;;;;;;19.97;16.37;;;;;;;8.53;61.01;94885.75;4982544;28;20315;-68
2023/03/04 08:59:18;;;;;;;21.03;17.87;;;;;;;8.68;60.86;94891.34;4981313;28;20249;-66
2023/03/04 09:01:43;;;;;;;25.40;18.20;;;;;;;8.67;60.63;94895.78;4984999;28;20203;-67
2023/03/04 09:04:09;;;;;;;22.67;17.93;;;;;;;8.96;59.43;94894.84;4978324;28;20258;-67
2023/03/04 09:06:34;;;;;;;19.27;17.27;;;;;;;9.10;58.98;94889.09;4984405;28;20227;-67
2023/03/04 09:09:00;;;;;;;20.60;18.10;;;;;;;8.97;58.75;94884.19;4985119;28;20234;-68
2023/03/04 09:11:25;;;;;;;19.70;17.17;;;;;;;9.12;58.39;94887.16;4981271;28;20192;-68
2023/03/04 09:13:51;;;;;;;23.87;17.37;;;;;;;9.02;57.94;94881.13;4984827;28;20219;-68
2023/03/04 09:16:16;;;;;;;18.77;16.83;;;;;;;8.94;57.81;94889.72;4983446;28;20235;-67
2023/03/04 09:18:42;;;;;;;19.77;17.33;;;;;;;8.85;58.00;94877.50;4985264;28;20214;-67
2023/03/04 09:21:08;;;;;;;19.73;17.17;;;;;;;8.84;58.38;94873.22;4985916;28;20222;-68
2023/03/04 09:23:35;;;;;;;18.63;15.97;;;;;;;9.03;58.17;94870.53;4979082;28;20293;-68
2023/03/04 09:26:00;;;;;;;20.30;15.97;;;;;;;9.01;57.29;94874.25;4985709;28;20190;-69
2023/03/04 09:28:26;;;;;;;17.87;15.60;;;;;;;8.94;57.93;94875.81;4983417;28;20228;-70
2023/03/04 09:30:51;;;;;;;18.33;15.50;;;;;;;9.00;57.02;94868.16;4982116;28;20227;-68
2023/03/04 09:33:17;;;;;;;20.63;17.17;;;;;;;8.70;57.97;94871.88;4984740;28;20223;-69
2023/03/04 09:35:42;;;;;;;19.53;16.20;;;;;;;8.70;58.38;94866.66;4977139;28;20227;-69
2023/03/04 09:38:08;;;;;;;17.47;15.60;;;;;;;8.97;57.16;94867.63;4989641;28;20191;-69
2023/03/04 09:40:37;;;;;;;17.57;15.67;;;;;;;9.12;56.36;94866.19;4984880;28;20223;-69
2023/03/04 09:43:04;;;;;;;18.73;16.27;;;;;;;9.03;57.14;94865.28;4984715;28;20231;-69
2023/03/04 09:45:57;;;;;;;20.00;16.30;;;;;;;8.87;56.24;94861.59;4982094;28;20306;-70
2023/03/04 09:48:26;;;;;;;18.50;14.87;;;;;;;8.72;56.48;94867.34;4981325;28;20227;-69
2023/03/04 09:51:04;;;;;;;17.73;15.17;;;;;;;8.42;57.22;94859.69;4981703;28;20241;-71
2023/03/04 09:53:35;;;;;;;19.77;15.07;;;;;;;8.73;56.89;94853.25;4978159;28;20525;-70
2023/03/04 09:56:02;;;;;;;16.50;13.93;;;;;;;8.97;56.06;94855.34;4983021;28;20200;-71
2023/03/04 09:58:53;;;;;;;20.03;14.77;;;;;;;9.19;55.35;94859.34;4979801;28;20215;-71
2023/03/04 10:01:27;;;;;;;18.77;14.20;;;;;;;9.26;55.04;94857.81;4983013;28;20223;-70
2023/03/04 10:04:15;;;;;;;18.47;14.13;;;;;;;9.41;54.10;94850.25;4984771;28;20238;-70
2023/03/04 10:06:41;;;;;;;15.17;13.23;;;;;;;9.45;54.11;94845.53;4985966;28;20224;-69
2023/03/04 10:09:17;;;;;;;16.07;14.37;;;;;;;9.43;54.30;94842.22;4986003;28;20301;-71
2023/03/04 10:11:49;;;;;;;15.33;13.73;;;;;;;9.41;54.17;94837.16;4987061;28;20283;-70
2023/03/04 10:14:20;;;;;;;16.67;13.30;;;;;;;9.57;53.26;94836.47;4986269;28;20192;-70
2023/03/04 10:16:51;;;;;;;15.97;13.73;;;;;;;9.55;53.65;94830.53;4983481;28;20206;-69
2023/03/04 10:19:57;;;;;;;18.10;15.33;;;;;;;9.58;54.63;94830.25;4980599;28;20303;-69
2023/03/04 10:22:35;;;;;;;18.30;14.43;;;;;;;9.48;54.90;94834.75;4985333;28;20277;-69
2023/03/04 10:25:14;;;;;;;17.33;15.43;;;;;;;9.77;54.83;94826.63;4978702;28;20223;-69
2023/03/04 10:27:42;;;;;;;16.63;14.90;;;;;;;9.92;54.27;94821.69;4976668;28;20275;-69
2023/03/04 10:30:43;;;;;;;18.97;14.77;;;;;;;10.04;53.82;94817.81;4975093;28;20220;-69
2023/03/04 10:33:14;;;;;;;18.67;14.73;;;;;;;10.26;53.32;94815.66;4972020;28;20269;-69
2023/03/04 10:35:45;;;;;;;18.33;14.60;;;;;;;10.53;51.56;94807.66;4957790;28;20234;-68
2023/03/04 10:38:12;;;;;;;17.07;13.67;;;;;;;10.23;52.71;94805.47;4978724;28;20210;-69
2023/03/04 10:40:39;;;;;;;17.57;14.70;;;;;;;10.20;52.52;94800.50;4969391;28;20216;-69
2023/03/04 10:43:07;;;;;;;16.43;14.23;;;;;;;10.38;51.69;94801.31;4979832;28;20279;-70
2023/03/04 10:45:38;;;;;;;15.53;13.60;;;;;;;10.48;51.12;94801.22;4983730;28;20222;-70
2023/03/04 10:48:04;;;;;;;21.03;15.10;;;;;;;10.43;50.95;94788.53;4990112;28;20750;-70
2023/03/04 10:50:31;;;;;;;17.43;14.80;;;;;;;10.42;51.39;94780.78;4989485;28;20206;-69
2023/03/04 10:52:57;;;;;;;19.30;15.37;;;;;;;10.52;50.95;94784.94;4984855;28;20254;-70
2023/03/04 10:55:26;;;;;;;20.13;15.67;;;;;;;10.45;51.99;94785.72;4986063;28;20215;-68
2023/03/04 10:58:18;;;;;;;20.97;15.10;;;;;;;10.47;52.31;94781.97;4989652;28;20214;-69
2023/03/04 11:00:49;;;;;;;20.67;15.43;;;;;;;10.34;52.41;94777.16;4963193;28;20268;-69
2023/03/04 11:03:30;;;;;;;18.97;15.03;;;;;;;10.36;52.32;94774.34;4983421;28;20231;-69
2023/03/04 11:06:11;;;;;;;19.17;14.90;;;;;;;10.37;52.21;94776.84;4967144;28;20256;-68
2023/03/04 11:08:39;;;;;;;17.67;14.70;;;;;;;10.34;52.30;94771.06;4964605;28;20539;-69
2023/03/04 11:11:21;;;;;;;19.47;14.13;;;;;;;10.30;52.03;94761.84;4982019;28;20200;-69
2023/03/04 11:13:52;;;;;;;17.63;15.00;;;;;;;10.24;52.28;94754.56;4983574;28;20223;-69
2023/03/04 11:16:29;;;;;;;22.30;15.40;;;;;;;10.13;52.17;94748.59;4962661;28;20238;-69
2023/03/04 11:19:03;;;;;;;21.53;15.97;;;;;;;9.58;54.13;94755.94;4980279;28;20309;-70
2023/03/04 11:21:33;;;;;;;18.00;15.33;;;;;;;9.93;53.12;94749.78;4965023;28;20249;-69
2023/03/04 11:24:05;;;;;;;22.20;15.97;;;;;;;9.79;53.79;94731.97;4964472;28;20232;-71
2023/03/04 11:26:44;;;;;;;19.43;14.57;;;;;;;9.92;54.12;94732.38;4981445;28;20211;-69